Time;durP1;ratioP1;P1;durP2;ratioP2;P2;SDS_P1;SDS_P2;PMS_P1;PMS_P2;Temp;Humidity;BMP_temperature;BMP_pressure;BME280_temperature;BME280_humidity;BME280_pressure;Samples;Min_cycle;Max_cycle;Signal;HPM_P1;HPM_P2
2022/01/14 00:00:22;;;;;;;115.30;46.93;;;;;;;;;;5096007;28;20408;-67
2022/01/14 00:02:49;;;;;;;247.55;50.50;;;;;;;;;;5095868;28;20459;-67
2022/01/14 00:05:15;;;;;;;125.05;48.75;;;;;;;;;;5095917;28;20159;-67
2022/01/14 00:07:41;;;;;;;102.47;45.00;;;;;;;;;;5095918;28;20228;-66
2022/01/14 00:10:08;;;;;;;203.60;48.57;;;;;;;;;;5095840;28;20495;-66
2022/01/14 00:12:39;;;;;;;131.00;47.85;;;;;;;;;;5095707;28;20787;-66
2022/01/14 00:15:24;;;;;;;144.25;48.88;;;;;;;;;;5095893;28;20171;-67
2022/01/14 00:17:50;;;;;;;156.68;46.50;;;;;;;;;;5095474;28;20230;-67
2022/01/14 00:20:16;;;;;;;157.70;50.33;;;;;;;;;;5095654;28;20535;-66
2022/01/14 00:22:42;;;;;;;126.20;50.00;;;;;;;;;;5095890;28;20201;-66
2022/01/14 00:33:23;;;;;;;187.45;47.95;;;;;;;;;;5095538;28;20173;-67
2022/01/14 00:35:49;;;;;;;161.53;49.77;;;;;;;;;;5095365;28;20254;-67
2022/01/14 00:38:15;;;;;;;194.80;51.23;;;;;;;;;;5095292;28;20398;-67
2022/01/14 00:40:41;;;;;;;188.95;50.38;;;;;;;;;;5095106;28;20405;-66
2022/01/14 00:43:07;;;;;;;136.10;49.65;;;;;;;;;;5095151;28;20242;-66
2022/01/14 00:45:36;;;;;;;113.72;48.10;;;;;;;;;;5095415;28;20221;-66
2022/01/14 00:48:02;;;;;;;107.80;46.60;;;;;;;;;;5094967;28;20234;-67
2022/01/14 00:50:28;;;;;;;106.55;44.38;;;;;;;;;;5094974;28;20165;-66
2022/01/14 00:52:54;;;;;;;92.38;43.55;;;;;;;;;;5094997;28;20171;-67
2022/01/14 00:55:29;;;;;;;87.33;41.70;;;;;;;;;;5095126;28;20178;-66
2022/01/14 01:00:27;;;;;;;84.47;39.22;;;;;;;;;;5093986;28;20171;-66
2022/01/14 01:02:53;;;;;;;88.07;39.22;;;;;;;;;;5094768;28;20167;-67
2022/01/14 01:05:20;;;;;;;81.77;41.20;;;;;;;;;;5094792;28;20177;-67
2022/01/14 01:07:55;;;;;;;73.93;39.83;;;;;;;;;;5094618;28;20495;-67
2022/01/14 01:10:23;;;;;;;76.82;41.00;;;;;;;;;;5094848;28;20260;-68
2022/01/14 01:12:54;;;;;;;84.13;42.40;;;;;;;;;;5094823;28;20631;-67
2022/01/14 01:15:20;;;;;;;77.00;40.10;;;;;;;;;;5094830;28;20543;-67
2022/01/14 01:17:47;;;;;;;70.80;39.30;;;;;;;;;;5094341;28;20392;-67
2022/01/14 01:20:17;;;;;;;71.55;40.22;;;;;;;;;;5094722;28;20186;-67
2022/01/14 01:22:45;;;;;;;70.65;39.67;;;;;;;;;;5094363;28;20224;-67
2022/01/14 01:25:15;;;;;;;75.65;40.53;;;;;;;;;;5094497;28;20587;-67
2022/01/14 01:27:43;;;;;;;90.80;41.92;;;;;;;;;;5094170;28;20551;-67
2022/01/14 01:30:16;;;;;;;98.47;43.55;;;;;;;;;;5094526;28;20193;-67
2022/01/14 01:32:46;;;;;;;80.07;42.40;;;;;;;;;;5094464;28;20174;-67
2022/01/14 01:35:12;;;;;;;83.72;41.85;;;;;;;;;;5094134;28;20225;-67
2022/01/14 01:37:39;;;;;;;85.50;43.60;;;;;;;;;;5094425;28;20179;-67
2022/01/14 01:40:05;;;;;;;74.25;42.53;;;;;;;;;;5094112;28;20171;-67
2022/01/14 01:42:32;;;;;;;79.72;41.58;;;;;;;;;;5094054;28;20171;-66
2022/01/14 01:44:59;;;;;;;96.47;45.10;;;;;;;;;;5094069;28;20156;-66
2022/01/14 01:47:25;;;;;;;108.72;43.92;;;;;;;;;;5093877;28;20202;-66
2022/01/14 01:49:51;;;;;;;95.03;44.83;;;;;;;;;;5093892;28;20182;-66
2022/01/14 01:52:18;;;;;;;96.60;45.97;;;;;;;;;;5094102;28;20171;-66
2022/01/14 01:54:44;;;;;;;92.40;45.05;;;;;;;;;;5093834;28;20423;-66
2022/01/14 01:57:10;;;;;;;92.63;44.65;;;;;;;;;;5093516;28;20179;-66
2022/01/14 01:59:36;;;;;;;102.63;46.00;;;;;;;;;;5093771;28;20212;-66
2022/01/14 02:02:02;;;;;;;81.85;44.83;;;;;;;;;;5094019;28;20398;-66
2022/01/14 02:04:29;;;;;;;84.90;43.85;;;;;;;;;;5093655;28;20242;-67
2022/01/14 02:06:55;;;;;;;76.25;41.83;;;;;;;;;;5093641;28;20665;-66
2022/01/14 02:09:22;;;;;;;78.47;41.25;;;;;;;;;;5093860;28;20167;-67
2022/01/14 02:11:48;;;;;;;86.63;42.97;;;;;;;;;;5093241;28;20182;-66
2022/01/14 02:19:43;;;;;;;76.90;39.33;;;;;;;;;;5093861;28;20169;-66
2022/01/14 02:22:13;;;;;;;76.63;40.47;;;;;;;;;;5092273;28;20527;-67
2022/01/14 02:27:07;;;;;;;91.50;43.67;;;;;;;;;;5093713;28;20571;-67
2022/01/14 02:29:33;;;;;;;81.72;43.40;;;;;;;;;;5093554;28;20683;-66
2022/01/14 02:32:00;;;;;;;85.80;42.63;;;;;;;;;;5093493;28;20163;-66
2022/01/14 02:34:26;;;;;;;85.28;44.22;;;;;;;;;;5093405;28;20163;-66
2022/01/14 02:36:52;;;;;;;73.55;39.38;;;;;;;;;;5093459;28;20163;-66
2022/01/14 02:39:19;;;;;;;107.88;43.65;;;;;;;;;;5093325;28;20171;-66
2022/01/14 02:41:46;;;;;;;72.38;39.15;;;;;;;;;;5093358;28;20163;-66
2022/01/14 02:44:19;;;;;;;93.40;41.38;;;;;;;;;;5093251;28;20228;-67
2022/01/14 02:46:53;;;;;;;122.47;45.28;;;;;;;;;;5093498;28;20289;-66
2022/01/14 02:49:19;;;;;;;85.53;42.58;;;;;;;;;;5093247;28;20186;-66
2022/01/14 02:51:45;;;;;;;77.93;41.08;;;;;;;;;;5093171;28;20163;-66
2022/01/14 02:54:15;;;;;;;76.37;40.30;;;;;;;;;;5093491;28;20171;-66
2022/01/14 02:56:46;;;;;;;74.72;39.83;;;;;;;;;;5093446;28;20401;-67
2022/01/14 02:59:13;;;;;;;110.35;40.90;;;;;;;;;;5093148;28;20187;-67
2022/01/14 03:01:39;;;;;;;242.65;42.42;;;;;;;;;;5093048;28;20193;-65
2022/01/14 03:04:06;;;;;;;150.30;44.58;;;;;;;;;;5093103;28;20170;-67
2022/01/14 03:06:32;;;;;;;81.05;40.80;;;;;;;;;;5092973;28;20246;-68
2022/01/14 03:08:58;;;;;;;85.25;40.53;;;;;;;;;;5093035;28;20250;-66
2022/01/14 03:11:35;;;;;;;334.63;51.20;;;;;;;;;;5093040;28;20191;-66
2022/01/14 03:14:03;;;;;;;204.70;44.85;;;;;;;;;;5092951;28;20178;-67
2022/01/14 03:16:31;;;;;;;92.15;41.67;;;;;;;;;;5092948;28;20223;-67
2022/01/14 03:19:06;;;;;;;155.15;41.05;;;;;;;;;;5093026;28;20698;-67
2022/01/14 03:21:39;;;;;;;87.90;40.88;;;;;;;;;;5093082;28;20256;-65
2022/01/14 03:24:27;;;;;;;114.47;40.22;;;;;;;;;;5096279;28;20687;-66
2022/01/14 03:26:53;;;;;;;79.28;40.60;;;;;;;;;;5096657;28;20286;-66
2022/01/14 03:29:20;;;;;;;71.33;36.77;;;;;;;;;;5096597;28;20268;-66
2022/01/14 03:31:46;;;;;;;87.93;38.92;;;;;;;;;;5096781;28;20412;-66
2022/01/14 03:34:13;;;;;;;96.30;38.50;;;;;;;;;;5095234;28;20175;-66
2022/01/14 03:36:39;;;;;;;133.80;42.22;;;;;;;;;;5096513;28;20167;-66
2022/01/14 03:39:05;;;;;;;176.15;41.60;;;;;;;;;;5096772;28;20167;-66
2022/01/14 03:41:31;;;;;;;219.20;46.38;;;;;;;;;;5096474;28;20228;-66
2022/01/14 03:43:57;;;;;;;151.77;44.58;;;;;;;;;;5095142;28;20202;-66
2022/01/14 03:46:23;;;;;;;93.03;40.47;;;;;;;;;;5096542;28;20167;-66
2022/01/14 03:48:52;;;;;;;112.57;38.13;;;;;;;;;;5096535;28;20265;-66
2022/01/14 03:51:18;;;;;;;76.65;38.80;;;;;;;;;;5096225;28;20398;-66
2022/01/14 03:53:46;;;;;;;167.17;41.40;;;;;;;;;;5096227;28;20171;-66
2022/01/14 03:56:12;;;;;;;238.18;44.70;;;;;;;;;;5096158;28;20394;-67
2022/01/14 03:58:38;;;;;;;139.60;42.07;;;;;;;;;;5096587;28;20182;-66
2022/01/14 04:01:06;;;;;;;91.78;42.42;;;;;;;;;;5096173;28;20906;-67
2022/01/14 04:03:32;;;;;;;93.75;39.45;;;;;;;;;;5096373;28;20179;-67
2022/01/14 04:05:58;;;;;;;222.87;43.67;;;;;;;;;;5096254;28;20614;-66
2022/01/14 04:08:24;;;;;;;128.93;42.07;;;;;;;;;;5095856;28;20552;-67
2022/01/14 04:10:52;;;;;;;128.60;42.77;;;;;;;;;;5094566;28;20428;-66
2022/01/14 04:13:23;;;;;;;239.70;43.65;;;;;;;;;;5095690;28;20951;-67
2022/01/14 04:15:49;;;;;;;123.35;40.40;;;;;;;;;;5095776;28;20163;-66
2022/01/14 04:18:18;;;;;;;126.82;40.40;;;;;;;;;;5095717;28;20171;-66
2022/01/14 04:20:47;;;;;;;100.45;40.38;;;;;;;;;;5095603;28;20194;-66
2022/01/14 04:23:14;;;;;;;362.65;48.33;;;;;;;;;;5095602;28;20179;-66
2022/01/14 04:25:40;;;;;;;148.05;43.78;;;;;;;;;;5095828;28;20535;-66
2022/01/14 04:28:07;;;;;;;155.60;42.78;;;;;;;;;;5095678;28;20577;-66
2022/01/14 04:30:33;;;;;;;165.90;42.78;;;;;;;;;;5095724;28;20182;-66
2022/01/14 04:32:59;;;;;;;288.73;49.17;;;;;;;;;;5095352;28;20171;-66
2022/01/14 04:35:26;;;;;;;173.18;43.05;;;;;;;;;;5095655;28;20171;-66
2022/01/14 04:37:52;;;;;;;195.18;45.33;;;;;;;;;;5095593;28;20203;-66
2022/01/14 04:40:18;;;;;;;122.15;41.65;;;;;;;;;;5095170;28;20586;-66
2022/01/14 04:42:45;;;;;;;94.43;41.30;;;;;;;;;;5093937;28;20190;-67
2022/01/14 04:45:14;;;;;;;91.07;39.30;;;;;;;;;;5095413;28;20167;-66
2022/01/14 04:47:46;;;;;;;80.47;36.50;;;;;;;;;;5095050;28;20209;-66
2022/01/14 04:50:15;;;;;;;114.50;39.45;;;;;;;;;;5095112;28;20159;-68
2022/01/14 04:52:43;;;;;;;69.47;38.78;;;;;;;;;;5095267;28;20221;-66
2022/01/14 04:55:10;;;;;;;76.97;38.30;;;;;;;;;;5095210;28;20163;-66
2022/01/14 04:57:37;;;;;;;65.82;35.50;;;;;;;;;;5095220;28;20271;-66
2022/01/14 05:00:08;;;;;;;61.75;34.55;;;;;;;;;;5095043;28;20171;-66
2022/01/14 05:02:34;;;;;;;60.25;32.90;;;;;;;;;;5094894;28;20163;-66
2022/01/14 05:05:01;;;;;;;60.13;34.53;;;;;;;;;;5094716;28;20177;-65
2022/01/14 05:07:28;;;;;;;61.55;33.42;;;;;;;;;;5094611;28;20333;-66
2022/01/14 05:10:49;;;;;;;68.10;37.85;;;;;;;;;;5094743;28;20212;-67
2022/01/14 05:12:43;;;;;;;64.95;35.10;;;;;;;;;;5088798;28;20195;-66
2022/01/14 05:15:10;;;;;;;66.25;36.45;;;;;;;;;;5094604;28;20168;-66
2022/01/14 05:17:36;;;;;;;59.22;34.45;;;;;;;;;;5094349;28;20300;-66
2022/01/14 05:20:03;;;;;;;63.83;32.95;;;;;;;;;;5094501;28;20233;-66
2022/01/14 05:22:29;;;;;;;143.70;35.80;;;;;;;;;;5094702;28;20171;-66
2022/01/14 05:24:55;;;;;;;63.53;33.63;;;;;;;;;;5094420;28;20649;-66
2022/01/14 05:27:21;;;;;;;61.05;32.70;;;;;;;;;;5094349;28;20464;-66
2022/01/14 05:29:48;;;;;;;136.85;36.53;;;;;;;;;;5094283;28;20180;-66
2022/01/14 05:32:15;;;;;;;127.22;34.88;;;;;;;;;;5094281;28;20176;-66
2022/01/14 05:34:42;;;;;;;56.03;32.00;;;;;;;;;;5094215;28;20253;-66
2022/01/14 05:37:08;;;;;;;54.67;32.75;;;;;;;;;;5094470;28;20237;-67
2022/01/14 05:39:35;;;;;;;54.83;30.77;;;;;;;;;;5094156;28;20167;-67
2022/01/14 05:42:01;;;;;;;51.72;29.67;;;;;;;;;;5094113;28;20242;-67
2022/01/14 05:44:28;;;;;;;55.22;31.02;;;;;;;;;;5094077;28;20549;-66
2022/01/14 05:46:55;;;;;;;50.38;29.63;;;;;;;;;;5093517;28;20312;-66
2022/01/14 05:49:21;;;;;;;54.17;29.80;;;;;;;;;;5094049;28;20199;-66
2022/01/14 05:51:47;;;;;;;44.33;28.17;;;;;;;;;;5093902;28;20165;-67
2022/01/14 05:54:14;;;;;;;44.30;27.63;;;;;;;;;;5093920;28;20173;-66
2022/01/14 05:56:40;;;;;;;42.17;27.98;;;;;;;;;;5093831;28;20171;-66
2022/01/14 05:59:06;;;;;;;44.80;28.07;;;;;;;;;;5093855;28;20175;-67
2022/01/14 06:01:32;;;;;;;47.77;30.67;;;;;;;;;;5092539;28;20511;-67
2022/01/14 06:03:59;;;;;;;52.70;30.40;;;;;;;;;;5094000;28;20413;-66
2022/01/14 06:06:27;;;;;;;50.63;30.20;;;;;;;;;;5093638;28;20159;-66
2022/01/14 06:08:53;;;;;;;49.25;30.80;;;;;;;;;;5093704;28;20174;-66
2022/01/14 06:11:19;;;;;;;51.67;31.10;;;;;;;;;;5093584;28;20166;-66
2022/01/14 06:13:45;;;;;;;48.13;28.17;;;;;;;;;;5093563;28;20485;-66
2022/01/14 06:16:11;;;;;;;55.75;29.77;;;;;;;;;;5093838;28;20627;-65
2022/01/14 06:18:37;;;;;;;49.63;29.42;;;;;;;;;;5093757;28;20174;-66
2022/01/14 06:21:04;;;;;;;68.60;38.93;;;;;;;;;;5093816;28;20637;-67
2022/01/14 06:23:30;;;;;;;70.78;38.33;;;;;;;;;;5093735;28;20405;-68
2022/01/14 06:25:56;;;;;;;61.80;35.92;;;;;;;;;;5093960;28;20609;-67
2022/01/14 06:28:22;;;;;;;57.20;32.35;;;;;;;;;;5093453;28;20233;-67
2022/01/14 06:30:48;;;;;;;54.35;30.90;;;;;;;;;;5093495;28;20168;-66
2022/01/14 06:33:15;;;;;;;49.10;30.30;;;;;;;;;;5093505;28;20221;-66
2022/01/14 06:35:43;;;;;;;50.10;29.20;;;;;;;;;;5093459;28;20216;-66
2022/01/14 06:38:10;;;;;;;46.05;28.77;;;;;;;;;;5093360;28;20186;-65
2022/01/14 06:40:36;;;;;;;51.55;31.15;;;;;;;;;;5093345;28;20189;-65
2022/01/14 06:43:04;;;;;;;75.63;44.00;;;;;;;;;;5093349;28;20177;-66
2022/01/14 06:45:30;;;;;;;39.95;26.42;;;;;;;;;;5093595;28;20174;-66
2022/01/14 06:47:56;;;;;;;38.80;26.27;;;;;;;;;;5093282;28;20606;-64
2022/01/14 06:50:22;;;;;;;48.43;31.17;;;;;;;;;;5093487;28;20433;-66
2022/01/14 06:52:49;;;;;;;59.65;31.52;;;;;;;;;;5093547;28;20489;-66
2022/01/14 06:55:15;;;;;;;54.17;31.70;;;;;;;;;;5093209;28;20687;-69
2022/01/14 06:57:41;;;;;;;50.10;31.33;;;;;;;;;;5094702;28;20500;-67
2022/01/14 07:00:08;;;;;;;49.35;30.00;;;;;;;;;;5097191;28;20194;-70
2022/01/14 07:02:34;;;;;;;49.30;29.27;;;;;;;;;;5097400;28;20265;-65
2022/01/14 07:05:00;;;;;;;53.00;30.50;;;;;;;;;;5097044;28;20190;-65
2022/01/14 07:07:26;;;;;;;52.27;29.20;;;;;;;;;;5096982;28;20570;-65
2022/01/14 07:09:58;;;;;;;48.60;29.00;;;;;;;;;;5096918;28;20446;-68
2022/01/14 07:12:24;;;;;;;51.00;29.58;;;;;;;;;;5096975;28;20397;-67
2022/01/14 07:14:51;;;;;;;52.22;31.27;;;;;;;;;;5096824;28;20197;-66
2022/01/14 07:17:17;;;;;;;57.88;33.63;;;;;;;;;;5096688;28;20241;-69
2022/01/14 07:19:43;;;;;;;65.60;34.58;;;;;;;;;;5097098;28;20200;-70
2022/01/14 07:22:09;;;;;;;205.48;123.47;;;;;;;;;;5096869;28;20633;-67
2022/01/14 07:24:36;;;;;;;67.47;35.20;;;;;;;;;;5096908;28;20167;-71
2022/01/14 07:27:02;;;;;;;62.30;32.85;;;;;;;;;;5097020;28;20582;-69
2022/01/14 07:29:28;;;;;;;56.15;32.47;;;;;;;;;;5096725;28;20209;-69
2022/01/14 07:31:54;;;;;;;54.50;30.50;;;;;;;;;;5096674;28;20175;-69
2022/01/14 07:34:20;;;;;;;53.90;30.80;;;;;;;;;;5096697;28;20390;-70
2022/01/14 07:36:46;;;;;;;62.80;31.00;;;;;;;;;;5096699;28;20824;-69
2022/01/14 07:39:12;;;;;;;51.78;30.60;;;;;;;;;;5096842;28;20754;-70
2022/01/14 07:41:38;;;;;;;53.20;30.33;;;;;;;;;;5096599;28;20308;-69
2022/01/14 07:44:04;;;;;;;45.43;29.43;;;;;;;;;;5096436;28;20393;-69
2022/01/14 07:46:31;;;;;;;53.83;29.55;;;;;;;;;;5096462;28;20466;-69
2022/01/14 07:48:58;;;;;;;100.55;43.08;;;;;;;;;;5096514;28;20175;-69
2022/01/14 07:51:24;;;;;;;58.17;33.10;;;;;;;;;;5096262;28;20156;-68
2022/01/14 07:53:50;;;;;;;63.83;33.42;;;;;;;;;;5096299;28;20251;-67
2022/01/14 07:56:16;;;;;;;60.13;32.13;;;;;;;;;;5096298;28;20223;-68
2022/01/14 07:58:42;;;;;;;61.30;32.30;;;;;;;;;;5096164;28;20892;-69
2022/01/14 08:01:08;;;;;;;62.10;33.78;;;;;;;;;;5096119;28;20537;-67
2022/01/14 08:03:35;;;;;;;51.40;31.95;;;;;;;;;;5096093;28;20248;-67
2022/01/14 08:06:01;;;;;;;57.60;32.20;;;;;;;;;;5095938;28;20173;-67
2022/01/14 08:08:28;;;;;;;58.80;36.35;;;;;;;;;;5095189;28;20728;-68
2022/01/14 08:10:55;;;;;;;57.88;35.67;;;;;;;;;;5094594;28;20199;-68
2022/01/14 08:13:20;;;;;;;54.10;30.90;;;;;;;;;;5095925;28;20167;-69
2022/01/14 08:15:47;;;;;;;55.97;32.97;;;;;;;;;;5095817;28;20636;-68
2022/01/14 08:18:13;;;;;;;56.10;33.42;;;;;;;;;;5095970;28;20824;-67
2022/01/14 08:20:38;;;;;;;54.50;33.40;;;;;;;;;;5095749;28;20167;-68
2022/01/14 08:23:04;;;;;;;71.90;38.90;;;;;;;;;;5095726;28;20163;-68
2022/01/14 08:25:30;;;;;;;65.60;37.30;;;;;;;;;;5095784;28;20405;-68
2022/01/14 08:27:56;;;;;;;58.83;35.25;;;;;;;;;;5095423;28;20465;-68
2022/01/14 08:30:22;;;;;;;64.23;37.03;;;;;;;;;;5094405;28;20265;-68
2022/01/14 08:32:50;;;;;;;54.13;34.73;;;;;;;;;;5095543;28;20402;-68
2022/01/14 08:35:16;;;;;;;53.70;32.92;;;;;;;;;;5095565;28;20469;-72
2022/01/14 08:37:42;;;;;;;56.15;34.97;;;;;;;;;;5095356;28;20167;-69
2022/01/14 08:40:10;;;;;;;51.80;32.45;;;;;;;;;;5095086;28;20196;-70
2022/01/14 08:42:36;;;;;;;44.00;28.02;;;;;;;;;;5095321;28;20163;-69
2022/01/14 08:45:03;;;;;;;39.85;26.02;;;;;;;;;;5095222;28;20189;-69
2022/01/14 08:47:32;;;;;;;38.92;26.02;;;;;;;;;;5095141;28;20673;-69
2022/01/14 08:49:58;;;;;;;38.65;26.05;;;;;;;;;;5095223;28;20167;-71
2022/01/14 08:52:24;;;;;;;34.92;24.30;;;;;;;;;;5095223;28;20256;-71
2022/01/14 08:54:51;;;;;;;36.22;24.70;;;;;;;;;;5095135;28;20163;-69
2022/01/14 08:57:18;;;;;;;45.00;23.70;;;;;;;;;;5095036;28;20168;-68
2022/01/14 08:59:44;;;;;;;31.45;22.13;;;;;;;;;;5095316;28;20238;-69
2022/01/14 09:02:10;;;;;;;31.33;23.40;;;;;;;;;;5094972;28;20218;-72
2022/01/14 09:04:36;;;;;;;29.95;21.90;;;;;;;;;;5094972;28;20393;-71
2022/01/14 09:07:03;;;;;;;31.40;22.40;;;;;;;;;;5094897;28;20637;-72
2022/01/14 09:09:29;;;;;;;27.27;21.80;;;;;;;;;;5094972;28;20813;-71
2022/01/14 09:11:55;;;;;;;30.23;21.00;;;;;;;;;;5094872;28;20167;-71
2022/01/14 09:14:22;;;;;;;31.00;22.27;;;;;;;;;;5094763;28;20260;-70
2022/01/14 09:16:48;;;;;;;33.33;25.20;;;;;;;;;;5094660;28;20461;-70
2022/01/14 09:19:14;;;;;;;35.03;25.00;;;;;;;;;;5094635;28;20402;-68
2022/01/14 09:21:44;;;;;;;31.53;24.77;;;;;;;;;;5094185;28;20744;-68
2022/01/14 09:24:10;;;;;;;27.60;22.07;;;;;;;;;;5094852;28;20428;-70
2022/01/14 09:26:37;;;;;;;25.43;21.33;;;;;;;;;;5094525;28;20887;-69
2022/01/14 09:29:04;;;;;;;25.33;19.33;;;;;;;;;;5094499;28;20417;-72
2022/01/14 09:31:30;;;;;;;29.00;19.73;;;;;;;;;;5093062;28;20500;-69
2022/01/14 09:33:56;;;;;;;21.97;19.57;;;;;;;;;;5094549;28;20413;-70
2022/01/14 09:36:22;;;;;;;27.90;21.50;;;;;;;;;;5094286;28;20880;-72
2022/01/14 09:38:49;;;;;;;24.53;20.07;;;;;;;;;;5094317;28;20474;-73
2022/01/14 09:41:17;;;;;;;27.10;21.10;;;;;;;;;;5092884;28;20435;-72
2022/01/14 09:43:43;;;;;;;26.10;18.90;;;;;;;;;;5094239;28;20776;-71
2022/01/14 09:46:10;;;;;;;21.10;18.10;;;;;;;;;;5094173;28;20788;-72
2022/01/14 09:48:37;;;;;;;21.07;17.67;;;;;;;;;;5094103;28;20464;-71
2022/01/14 09:51:03;;;;;;;19.30;17.03;;;;;;;;;;5094005;28;20397;-74
2022/01/14 09:53:30;;;;;;;21.33;18.00;;;;;;;;;;5094159;28;20401;-69
2022/01/14 09:55:56;;;;;;;21.83;18.97;;;;;;;;;;5094038;28;20945;-72
2022/01/14 09:58:35;;;;;;;21.03;17.57;;;;;;;;;;5094097;28;20451;-71
2022/01/14 10:01:08;;;;;;;21.07;17.53;;;;;;;;;;5093959;28;20397;-71
2022/01/14 10:03:34;;;;;;;21.03;17.57;;;;;;;;;;5094160;28;20431;-70
2022/01/14 10:06:00;;;;;;;21.77;19.00;;;;;;;;;;5093913;28;20411;-70
2022/01/14 10:08:28;;;;;;;20.50;18.30;;;;;;;;;;5093759;28;20465;-71
2022/01/14 10:10:59;;;;;;;19.10;17.00;;;;;;;;;;5093794;28;20789;-72
2022/01/14 10:13:35;;;;;;;18.33;16.53;;;;;;;;;;5093798;28;20400;-70
2022/01/14 10:16:05;;;;;;;17.80;15.90;;;;;;;;;;5093673;28;20470;-70
2022/01/14 10:18:35;;;;;;;19.97;17.67;;;;;;;;;;5093681;28;20495;-70
2022/01/14 10:21:02;;;;;;;19.77;17.67;;;;;;;;;;5093655;28;20916;-71
2022/01/14 10:23:40;;;;;;;25.67;19.87;;;;;;;;;;5093622;28;20385;-69
2022/01/14 10:26:06;;;;;;;25.23;17.20;;;;;;;;;;5093612;28;20403;-70
2022/01/14 10:28:32;;;;;;;23.30;19.50;;;;;;;;;;5091989;28;20536;-70
2022/01/14 10:30:58;;;;;;;20.80;18.13;;;;;;;;;;5094328;28;20400;-69
2022/01/14 10:33:27;;;;;;;20.07;18.00;;;;;;;;;;5100670;28;20399;-69
2022/01/14 10:35:53;;;;;;;19.70;17.80;;;;;;;;;;5100323;28;20488;-71
2022/01/14 10:38:20;;;;;;;20.17;18.17;;;;;;;;;;5100240;28;20474;-70
2022/01/14 10:40:47;;;;;;;23.67;18.80;;;;;;;;;;5100212;28;20406;-71
2022/01/14 10:43:15;;;;;;;20.30;18.43;;;;;;;;;;5100074;28;20503;-72
2022/01/14 10:45:42;;;;;;;24.83;17.60;;;;;;;;;;5098934;28;20416;-74
2022/01/14 10:48:09;;;;;;;18.90;17.10;;;;;;;;;;5100097;28;20471;-71
2022/01/14 10:50:37;;;;;;;18.97;17.27;;;;;;;;;;5100208;28;20399;-71
2022/01/14 10:53:08;;;;;;;21.27;18.17;;;;;;;;;;5100363;28;20421;-71
2022/01/14 10:55:35;;;;;;;22.40;19.37;;;;;;;;;;5100123;28;20395;-68
2022/01/14 10:58:06;;;;;;;23.17;19.37;;;;;;;;;;5100114;28;20404;-70
2022/01/14 11:00:40;;;;;;;30.60;25.13;;;;;;;;;;5100133;28;20396;-69
2022/01/14 11:03:06;;;;;;;22.60;20.00;;;;;;;;;;5100354;28;20404;-73
2022/01/14 11:05:33;;;;;;;21.73;19.50;;;;;;;;;;5100326;28;20396;-73
2022/01/14 11:08:00;;;;;;;24.10;21.50;;;;;;;;;;5099923;28;20471;-72
2022/01/14 11:10:27;;;;;;;27.00;20.43;;;;;;;;;;5100003;28;20389;-74
2022/01/14 11:12:54;;;;;;;24.10;21.50;;;;;;;;;;5099964;28;20408;-75
2022/01/14 11:15:20;;;;;;;23.60;20.50;;;;;;;;;;5099980;28;20394;-72
2022/01/14 11:17:52;;;;;;;23.13;20.63;;;;;;;;;;5099847;28;20468;-71
2022/01/14 11:20:30;;;;;;;27.57;21.70;;;;;;;;;;5100183;28;20446;-70
2022/01/14 11:23:15;;;;;;;23.60;21.17;;;;;;;;;;5100109;28;20430;-74
2022/01/14 11:25:44;;;;;;;27.13;22.50;;;;;;;;;;5099948;28;20411;-72
2022/01/14 11:28:10;;;;;;;22.73;19.57;;;;;;;;;;5099782;28;20872;-74
2022/01/14 11:30:38;;;;;;;24.97;20.93;;;;;;;;;;5099836;28;20423;-71
2022/01/14 11:33:04;;;;;;;25.43;21.70;;;;;;;;;;5099714;28;20401;-69
2022/01/14 11:35:32;;;;;;;26.30;22.43;;;;;;;;;;5100025;28;20492;-72
2022/01/14 11:37:58;;;;;;;33.23;22.83;;;;;;;;;;5099745;28;20404;-71
2022/01/14 11:40:24;;;;;;;37.90;28.13;;;;;;;;;;5099705;28;20880;-69
2022/01/14 11:42:52;;;;;;;29.40;21.67;;;;;;;;;;5098092;28;20410;-72
2022/01/14 11:45:41;;;;;;;30.70;21.90;;;;;;;;;;5096668;28;20771;-71
2022/01/14 11:48:07;;;;;;;30.73;23.50;;;;;;;;;;5096470;28;20468;-71
2022/01/14 11:50:33;;;;;;;34.37;23.40;;;;;;;;;;5096639;28;20401;-72
2022/01/14 11:53:01;;;;;;;31.90;21.73;;;;;;;;;;5096423;28;20887;-72
2022/01/14 11:55:34;;;;;;;29.67;21.73;;;;;;;;;;5096604;28;20777;-72
2022/01/14 11:58:00;;;;;;;26.50;21.67;;;;;;;;;;5096323;28;20488;-69
2022/01/14 12:00:42;;;;;;;29.20;23.17;;;;;;;;;;5096298;28;20485;-72
2022/01/14 12:03:10;;;;;;;27.00;22.47;;;;;;;;;;5096123;28;20411;-72
2022/01/14 12:05:55;;;;;;;25.00;21.37;;;;;;;;;;5096151;28;20860;-73
2022/01/14 12:08:22;;;;;;;26.00;21.97;;;;;;;;;;5095867;28;20466;-72
2022/01/14 12:11:11;;;;;;;27.93;22.37;;;;;;;;;;5094827;28;20837;-73
2022/01/14 12:13:43;;;;;;;27.33;22.57;;;;;;;;;;5088026;28;20423;-73
2022/01/14 12:18:57;;;;;;;24.20;21.63;;;;;;;;;;5096235;28;20406;-72
2022/01/14 12:21:41;;;;;;;28.10;22.00;;;;;;;;;;5095726;28;20435;-72
2022/01/14 12:24:19;;;;;;;24.43;21.60;;;;;;;;;;5095687;28;20800;-70
2022/01/14 12:27:00;;;;;;;25.30;22.10;;;;;;;;;;5094411;28;20820;-70
2022/01/14 12:29:43;;;;;;;26.43;22.93;;;;;;;;;;5095695;28;20451;-70
2022/01/14 12:32:09;;;;;;;26.37;22.20;;;;;;;;;;5095652;28;20827;-70
2022/01/14 12:34:36;;;;;;;28.80;23.27;;;;;;;;;;5095574;28;20471;-70
2022/01/14 12:37:03;;;;;;;29.30;22.90;;;;;;;;;;5095545;28;20408;-70
2022/01/14 12:39:29;;;;;;;24.23;21.63;;;;;;;;;;5095499;28;20408;-71
2022/01/14 12:41:56;;;;;;;26.03;21.50;;;;;;;;;;5095397;28;20401;-70
2022/01/14 12:44:23;;;;;;;23.00;20.60;;;;;;;;;;5095354;28;20411;-70
2022/01/14 12:46:59;;;;;;;26.00;22.33;;;;;;;;;;5095536;28;20499;-71
2022/01/14 12:49:27;;;;;;;25.10;22.43;;;;;;;;;;5095359;28;20819;-70
2022/01/14 12:52:06;;;;;;;26.00;22.87;;;;;;;;;;5095284;28;20393;-71
2022/01/14 12:54:33;;;;;;;27.53;23.60;;;;;;;;;;5095072;28;20406;-69
2022/01/14 12:56:59;;;;;;;26.10;21.80;;;;;;;;;;5095084;28;20408;-69
2022/01/14 12:59:25;;;;;;;28.97;22.20;;;;;;;;;;5095265;28;20412;-69
2022/01/14 13:01:55;;;;;;;34.93;21.97;;;;;;;;;;5095128;28;20407;-69
2022/01/14 13:04:23;;;;;;;24.93;21.57;;;;;;;;;;5095163;28;20435;-69
2022/01/14 13:07:01;;;;;;;28.23;22.83;;;;;;;;;;5095376;28;20435;-70
2022/01/14 13:09:38;;;;;;;25.40;22.60;;;;;;;;;;5094030;28;20434;-70
2022/01/14 13:12:07;;;;;;;25.53;21.27;;;;;;;;;;5095064;28;20390;-70
2022/01/14 13:14:39;;;;;;;28.93;23.03;;;;;;;;;;5094829;28;20493;-70
2022/01/14 13:17:12;;;;;;;30.53;23.20;;;;;;;;;;5094679;28;20530;-70
2022/01/14 13:19:39;;;;;;;29.93;21.93;;;;;;;;;;5094809;28;20405;-69
2022/01/14 13:22:10;;;;;;;30.40;24.67;;;;;;;;;;5095191;28;20824;-69
2022/01/14 13:24:38;;;;;;;33.03;24.00;;;;;;;;;;5094622;28;20481;-69
2022/01/14 13:27:04;;;;;;;27.20;21.53;;;;;;;;;;5094581;28;20460;-69
2022/01/14 13:29:37;;;;;;;27.87;23.40;;;;;;;;;;5094478;28;20454;-69
2022/01/14 13:32:04;;;;;;;30.27;23.77;;;;;;;;;;5094469;28;20400;-70
2022/01/14 13:34:30;;;;;;;28.37;21.50;;;;;;;;;;5094386;28;20753;-68
2022/01/14 13:36:57;;;;;;;26.40;22.13;;;;;;;;;;5094445;28;20393;-67
2022/01/14 13:39:23;;;;;;;30.83;22.57;;;;;;;;;;5094062;28;20433;-67
2022/01/14 13:41:49;;;;;;;32.20;23.37;;;;;;;;;;5094212;28;20421;-67
2022/01/14 13:44:18;;;;;;;28.23;21.40;;;;;;;;;;5094118;28;20876;-67
2022/01/14 13:46:45;;;;;;;30.97;22.20;;;;;;;;;;5094101;28;20420;-67
2022/01/14 13:49:20;;;;;;;26.83;22.43;;;;;;;;;;5093958;28;20766;-68
2022/01/14 13:51:47;;;;;;;30.40;22.63;;;;;;;;;;5094017;28;20412;-67
2022/01/14 13:54:16;;;;;;;31.43;22.10;;;;;;;;;;5094016;28;20399;-67
2022/01/14 13:56:42;;;;;;;31.73;23.20;;;;;;;;;;5093994;28;20427;-66
2022/01/14 13:59:09;;;;;;;33.67;24.90;;;;;;;;;;5093785;28;20489;-68
2022/01/14 14:01:36;;;;;;;32.13;23.60;;;;;;;;;;5093850;28;20393;-68
2022/01/14 14:04:15;;;;;;;30.60;23.30;;;;;;;;;;5093861;28;20868;-68
2022/01/14 14:06:45;;;;;;;34.50;25.13;;;;;;;;;;5093188;28;20397;-67
2022/01/14 14:09:25;;;;;;;34.53;25.57;;;;;;;;;;5093904;28;20425;-68
2022/01/14 14:12:10;;;;;;;37.57;26.03;;;;;;;;;;5093835;28;20386;-67
2022/01/14 14:17:21;;;;;;;34.27;24.53;;;;;;;;;;5093584;28;20506;-68
2022/01/14 14:19:48;;;;;;;36.80;23.80;;;;;;;;;;5093664;28;20394;-69
2022/01/14 14:22:18;;;;;;;37.37;26.70;;;;;;;;;;5093956;28;20437;-68
2022/01/14 14:27:40;;;;;;;34.80;24.67;;;;;;;;;;5080584;28;20464;-69
2022/01/14 14:30:12;;;;;;;36.53;26.30;;;;;;;;;;5093612;28;20405;-67
2022/01/14 14:32:38;;;;;;;37.63;25.67;;;;;;;;;;5093535;28;20592;-68
2022/01/14 14:35:05;;;;;;;40.83;25.53;;;;;;;;;;5093419;28;20766;-67
2022/01/14 14:37:34;;;;;;;35.17;24.30;;;;;;;;;;5093441;28;20398;-67
2022/01/14 14:40:02;;;;;;;32.57;24.57;;;;;;;;;;5093253;28;20415;-67
2022/01/14 14:42:28;;;;;;;40.83;26.90;;;;;;;;;;5093645;28;20405;-67
2022/01/14 14:44:54;;;;;;;33.43;25.93;;;;;;;;;;5093419;28;20408;-67